createdAt,value
2024-01-30T00:00:01.004Z,-1.3
2024-01-30T00:04:00.850Z,-1.3
2024-01-30T00:08:01.161Z,-1.3
2024-01-30T00:12:00.902Z,-1.3
2024-01-30T00:16:01.043Z,-1.3
2024-01-30T00:20:05.456Z,-1.3
2024-01-30T00:24:01.104Z,-1.3
2024-01-30T00:28:01.282Z,-1.3
2024-01-30T00:32:02.700Z,-1.3
2024-01-30T00:36:00.865Z,-1.3
2024-01-30T00:40:01.079Z,-1.3
2024-01-30T00:44:01.782Z,-1.4
2024-01-30T00:48:01.101Z,-1.4
2024-01-30T00:52:00.925Z,-1.4
2024-01-30T00:56:03.637Z,-1.4
2024-01-30T01:00:00.915Z,-1.4
2024-01-30T01:04:01.057Z,-1.5
2024-01-30T01:08:01.037Z,-1.5
2024-01-30T01:12:01.501Z,-1.5
2024-01-30T01:16:01.036Z,-1.5
2024-01-30T01:20:02.604Z,-1.5
2024-01-30T01:24:00.929Z,-1.5
2024-01-30T01:28:01.623Z,-1.5
2024-01-30T01:32:03.054Z,-1.5
2024-01-30T01:36:02.625Z,-1.5
2024-01-30T01:40:00.946Z,-1.5
2024-01-30T01:44:01.950Z,-1.5
2024-01-30T01:48:00.990Z,-1.5
2024-01-30T01:52:01.015Z,-1.5
2024-01-30T01:56:01.146Z,-1.5
2024-01-30T02:00:01.379Z,-1.5
2024-01-30T02:04:01.109Z,-1.6
2024-01-30T02:08:03.603Z,-1.6
2024-01-30T02:12:00.908Z,-1.6
2024-01-30T02:16:01.270Z,-1.7
2024-01-30T02:20:01.948Z,-1.7
2024-01-30T02:24:01.376Z,-1.7
2024-01-30T02:28:00.920Z,-1.7
2024-01-30T02:32:01.991Z,-1.7
2024-01-30T02:36:00.954Z,-1.7
2024-01-30T02:40:01.064Z,-1.7
2024-01-30T02:44:01.111Z,-1.7
2024-01-30T02:48:00.950Z,-1.7
2024-01-30T02:52:00.924Z,-1.7
2024-01-30T02:56:05.938Z,-1.7
2024-01-30T03:00:01.127Z,-1.7
2024-01-30T03:04:00.997Z,-1.7
2024-01-30T03:08:01.103Z,-1.7
2024-01-30T03:12:01.116Z,-1.7
2024-01-30T03:16:00.875Z,-1.7
2024-01-30T03:20:02.333Z,-1.7
2024-01-30T03:24:00.909Z,-1.6
2024-01-30T03:28:01.302Z,-1.6
2024-01-30T03:32:01.952Z,-1.6
2024-01-30T03:36:03.141Z,-1.6
2024-01-30T03:40:01.266Z,-1.6
2024-01-30T03:44:01.858Z,-1.6
2024-01-30T03:48:00.897Z,-1.6
2024-01-30T03:52:01.092Z,-1.6
2024-01-30T03:56:01.744Z,-1.6
2024-01-30T04:00:02.778Z,-1.6
2024-01-30T04:04:00.975Z,-1.5
2024-01-30T04:08:01.133Z,-1.5
2024-01-30T04:12:02.911Z,-1.5
2024-01-30T04:16:01.604Z,-1.5
2024-01-30T04:20:02.710Z,-1.5
2024-01-30T04:24:01.012Z,-1.5
2024-01-30T04:28:00.921Z,-1.5
2024-01-30T04:32:00.996Z,-1.5
2024-01-30T04:36:00.906Z,-1.4
2024-01-30T04:40:03.111Z,-1.4
2024-01-30T04:44:01.756Z,-1.4
2024-01-30T04:48:00.956Z,-1.4
2024-01-30T04:52:00.995Z,-1.4
2024-01-30T04:56:01.793Z,-1.4
2024-01-30T05:00:00.940Z,-1.4
2024-01-30T05:04:03.684Z,-1.4
2024-01-30T05:08:00.916Z,-1.4
2024-01-30T05:12:01.175Z,-1.4
2024-01-30T05:16:02.296Z,-1.3
2024-01-30T05:20:01.088Z,-1.3
2024-01-30T05:24:00.863Z,-1.3
2024-01-30T05:28:01.036Z,-1.3
2024-01-30T05:32:00.934Z,-1.3
2024-01-30T05:36:00.902Z,-1.4
2024-01-30T05:40:00.957Z,-1.4
2024-01-30T05:44:01.996Z,-1.3
2024-01-30T05:48:00.920Z,-1.3
2024-01-30T05:52:02.986Z,-1.3
2024-01-30T05:56:01.867Z,-1.3
2024-01-30T06:00:01.020Z,-1.3
2024-01-30T06:04:01.933Z,-1.3
2024-01-30T06:08:02.152Z,-1.3
2024-01-30T06:12:00.930Z,-1.3
2024-01-30T06:16:01.140Z,-1.3
2024-01-30T06:20:01.735Z,-1.3
2024-01-30T06:24:01.080Z,-1.2
2024-01-30T06:28:03.521Z,-1.2
2024-01-30T06:32:01.119Z,-1.2
2024-01-30T06:36:00.871Z,-1.2
2024-01-30T06:40:01.107Z,-1.2
2024-01-30T06:44:02.014Z,-1.2
2024-01-30T06:48:01.567Z,-1.2
2024-01-30T06:52:02.519Z,-1.2
2024-01-30T06:56:01.829Z,-1.2
2024-01-30T07:00:01.162Z,-1.2
2024-01-30T07:04:01.153Z,-1.2
2024-01-30T07:08:00.974Z,-1.2
2024-01-30T07:12:01.057Z,-1.2
2024-01-30T07:16:00.992Z,-1.1
2024-01-30T07:20:03.861Z,-1.1
2024-01-30T07:24:00.893Z,-1.1
2024-01-30T07:28:01.088Z,-1.1
2024-01-30T07:32:00.914Z,-1.1
2024-01-30T07:36:01.031Z,-1.1
2024-01-30T07:40:01.448Z,-1.1
2024-01-30T07:44:01.109Z,-1.1
2024-01-30T07:48:00.871Z,-1.1
2024-01-30T07:52:04.146Z,-1.1
2024-01-30T07:56:00.941Z,-1.1
2024-01-30T08:00:01.032Z,-1.1
2024-01-30T08:04:01.856Z,-1
2024-01-30T08:08:01.018Z,-1
2024-01-30T08:12:00.935Z,-1
2024-01-30T08:16:01.169Z,-1
2024-01-30T08:20:04.610Z,-1
2024-01-30T08:24:00.973Z,-0.9
2024-01-30T08:28:01.814Z,-0.9
2024-01-30T08:32:01.765Z,-0.9
2024-01-30T08:36:00.856Z,-0.9
2024-01-30T08:40:04.687Z,-0.9
2024-01-30T08:44:00.916Z,-0.8
2024-01-30T08:48:01.000Z,-0.8
2024-01-30T08:52:01.813Z,-0.8
2024-01-30T08:56:01.389Z,-0.7
2024-01-30T09:00:04.455Z,-0.7
2024-01-30T09:04:01.082Z,-0.6
2024-01-30T09:08:01.070Z,-0.6
2024-01-30T09:12:06.991Z,-0.6
2024-01-30T09:16:01.746Z,-0.5
2024-01-30T09:20:01.078Z,-0.5
2024-01-30T09:24:02.425Z,-0.4
2024-01-30T09:28:01.147Z,-0.4
2024-01-30T09:32:03.895Z,-0.4
2024-01-30T09:36:01.075Z,-0.3
2024-01-30T09:40:01.033Z,-0.3
2024-01-30T09:44:02.815Z,-0.3
2024-01-30T09:48:00.978Z,-0.3
2024-01-30T09:52:01.057Z,-0.3
2024-01-30T09:56:01.469Z,-0.2
2024-01-30T10:00:00.980Z,-0.2
2024-01-30T10:04:01.919Z,-0.2
2024-01-30T10:08:05.825Z,-0.2
2024-01-30T10:12:01.923Z,-0.2
2024-01-30T10:16:03.227Z,-0.1
2024-01-30T10:20:05.247Z,-0.1
2024-01-30T10:24:01.007Z,0
2024-01-30T10:28:00.957Z,0
2024-01-30T10:32:03.079Z,0
2024-01-30T10:36:01.963Z,0.1
2024-01-30T10:40:04.279Z,0.1
2024-01-30T10:44:03.877Z,0.1
2024-01-30T10:48:02.579Z,0.1
2024-01-30T10:52:03.381Z,0.1
2024-01-30T10:56:01.313Z,0.2
2024-01-30T11:00:05.401Z,0.2
2024-01-30T11:04:01.445Z,0.2
2024-01-30T11:08:10.325Z,0.2
2024-01-30T11:12:01.821Z,0.2
2024-01-30T11:16:01.346Z,0.3
2024-01-30T11:20:02.983Z,0.3
2024-01-30T11:24:02.624Z,0.3
2024-01-30T11:28:02.848Z,0.3
2024-01-30T11:32:01.756Z,0.3
2024-01-30T11:36:02.588Z,0.4
2024-01-30T11:40:02.645Z,0.4
2024-01-30T11:44:04.021Z,0.4
2024-01-30T11:48:03.409Z,0.4
2024-01-30T11:52:02.726Z,0.4
2024-01-30T11:56:01.660Z,0.4
2024-01-30T12:00:00.946Z,0.4
2024-01-30T12:04:03.075Z,0.4
2024-01-30T12:08:01.725Z,0.4
2024-01-30T12:12:00.879Z,0.4
2024-01-30T12:16:02.321Z,0.5
2024-01-30T12:20:03.576Z,0.5
2024-01-30T12:24:01.100Z,0.5
2024-01-30T12:28:02.529Z,0.5
2024-01-30T12:32:01.025Z,0.5
2024-01-30T12:36:02.920Z,0.5
2024-01-30T12:40:01.947Z,0.5
2024-01-30T12:44:01.074Z,0.5
2024-01-30T12:48:00.960Z,0.5
2024-01-30T12:52:01.985Z,0.5
2024-01-30T12:56:00.945Z,0.6
2024-01-30T13:00:00.941Z,0.6
2024-01-30T13:04:01.822Z,0.6
2024-01-30T13:08:01.053Z,0.6
2024-01-30T13:12:01.111Z,0.6
2024-01-30T13:16:01.047Z,0.7
2024-01-30T13:20:07.468Z,0.7
2024-01-30T13:24:00.959Z,0.7
2024-01-30T13:28:01.858Z,0.7
2024-01-30T13:32:01.081Z,0.7
2024-01-30T13:36:00.916Z,0.6
2024-01-30T13:40:02.365Z,0.6
2024-01-30T13:44:03.487Z,0.6
2024-01-30T13:48:01.175Z,0.6
2024-01-30T13:52:00.945Z,0.6
2024-01-30T13:56:01.304Z,0.5
2024-01-30T14:00:00.906Z,0.5
2024-01-30T14:04:01.065Z,0.5
2024-01-30T14:08:02.001Z,0.5
2024-01-30T14:12:01.080Z,0.5
2024-01-30T14:16:01.104Z,0.5
2024-01-30T14:20:03.366Z,0.5
2024-01-30T14:24:00.905Z,0.5
2024-01-30T14:28:01.816Z,0.4
2024-01-30T14:32:01.161Z,0.4
2024-01-30T14:36:01.069Z,0.4
2024-01-30T14:40:01.221Z,0.4
2024-01-30T14:44:01.086Z,0.4
2024-01-30T14:48:01.282Z,0.4
2024-01-30T14:52:04.349Z,0.4
2024-01-30T14:56:03.068Z,0.4
2024-01-30T15:00:00.977Z,0.4
2024-01-30T15:04:01.037Z,0.4
2024-01-30T15:08:01.385Z,0.4
2024-01-30T15:12:00.879Z,0.4
2024-01-30T15:16:05.869Z,0.4
2024-01-30T15:20:01.018Z,0.4
2024-01-30T15:24:01.135Z,0.4
2024-01-30T15:28:00.984Z,0.4
2024-01-30T15:32:02.933Z,0.4
2024-01-30T15:36:01.355Z,0.4
2024-01-30T15:40:01.060Z,0.4
2024-01-30T15:44:02.495Z,0.4
2024-01-30T15:48:00.990Z,0.4
2024-01-30T15:52:00.906Z,0.4
2024-01-30T15:56:03.276Z,0.4
2024-01-30T16:00:00.863Z,0.4
2024-01-30T16:04:01.016Z,0.4
2024-01-30T16:08:01.940Z,0.4
2024-01-30T16:12:00.937Z,0.4
2024-01-30T16:16:00.940Z,0.4
2024-01-30T16:20:01.115Z,0.4
2024-01-30T16:24:00.889Z,0.4
2024-01-30T16:28:01.060Z,0.4
2024-01-30T16:32:03.503Z,0.4
2024-01-30T16:36:01.014Z,0.4
2024-01-30T16:40:01.017Z,0.4
2024-01-30T16:44:01.955Z,0.4
2024-01-30T16:48:01.015Z,0.4
2024-01-30T16:52:02.538Z,0.4
2024-01-30T16:56:03.570Z,0.4
2024-01-30T17:00:01.030Z,0.4
2024-01-30T17:04:00.962Z,0.4
2024-01-30T17:08:01.911Z,0.4
2024-01-30T17:12:01.889Z,0.4
2024-01-30T17:16:00.975Z,0.4
2024-01-30T17:20:02.071Z,0.4
2024-01-30T17:24:01.097Z,0.4
2024-01-30T17:28:01.126Z,0.4
2024-01-30T17:32:01.942Z,0.4
2024-01-30T17:36:01.492Z,0.4
2024-01-30T17:40:02.063Z,0.4
2024-01-30T17:44:01.837Z,0.4
2024-01-30T17:48:01.078Z,0.5
2024-01-30T17:52:01.174Z,0.5
2024-01-30T17:56:05.621Z,0.5
2024-01-30T18:00:00.909Z,0.5
2024-01-30T18:04:01.024Z,0.5
2024-01-30T18:08:01.423Z,0.5
2024-01-30T18:12:01.065Z,0.5
2024-01-30T18:16:01.027Z,0.5
2024-01-30T18:20:04.316Z,0.5
2024-01-30T18:24:00.870Z,0.5
2024-01-30T18:28:02.483Z,0.5
2024-01-30T18:32:02.037Z,0.5
2024-01-30T18:36:00.950Z,0.5
2024-01-30T18:40:00.952Z,0.5
2024-01-30T18:44:02.427Z,0.5
2024-01-30T18:48:00.949Z,0.5
2024-01-30T18:52:03.331Z,0.5
2024-01-30T18:56:02.883Z,0.5
2024-01-30T19:00:00.917Z,0.5
2024-01-30T19:04:00.965Z,0.5
2024-01-30T19:08:03.777Z,0.5
2024-01-30T19:12:01.983Z,0.5
2024-01-30T19:16:02.472Z,0.5
2024-01-30T19:20:01.158Z,0.5
2024-01-30T19:24:00.986Z,0.5
2024-01-30T19:28:00.992Z,0.5
2024-01-30T19:32:01.854Z,0.5
2024-01-30T19:36:00.981Z,0.5
2024-01-30T19:40:00.933Z,0.5
2024-01-30T19:44:00.994Z,0.5
2024-01-30T19:48:01.016Z,0.5
2024-01-30T19:52:04.006Z,0.5
2024-01-30T19:56:04.398Z,0.5
2024-01-30T20:00:01.146Z,0.5
2024-01-30T20:04:01.784Z,0.5
2024-01-30T20:08:03.526Z,0.5
2024-01-30T20:12:01.018Z,0.5
2024-01-30T20:16:00.966Z,0.4
2024-01-30T20:20:02.335Z,0.4
2024-01-30T20:24:02.453Z,0.4
2024-01-30T20:28:01.038Z,0.4
2024-01-30T20:32:01.124Z,0.4
2024-01-30T20:36:02.241Z,0.5
2024-01-30T20:40:00.972Z,0.5
2024-01-30T20:44:02.733Z,0.5
2024-01-30T20:48:01.456Z,0.5
2024-01-30T20:52:01.170Z,0.5
2024-01-30T20:56:01.989Z,0.5
2024-01-30T21:00:00.979Z,0.5
2024-01-30T21:04:00.955Z,0.5
2024-01-30T21:08:02.808Z,0.5
2024-01-30T21:12:00.897Z,0.5
2024-01-30T21:16:01.011Z,0.5
2024-01-30T21:20:02.491Z,0.5
2024-01-30T21:24:00.928Z,0.5
2024-01-30T21:28:00.947Z,0.5
2024-01-30T21:32:01.874Z,0.5
2024-01-30T21:36:01.029Z,0.5
2024-01-30T21:40:03.753Z,0.5
2024-01-30T21:44:01.017Z,0.5
2024-01-30T21:48:01.019Z,0.5
2024-01-30T21:52:05.071Z,0.5
2024-01-30T21:56:03.012Z,0.5
2024-01-30T22:00:00.943Z,0.5
2024-01-30T22:04:01.010Z,0.5
2024-01-30T22:08:03.364Z,0.5
2024-01-30T22:12:00.943Z,0.5
2024-01-30T22:16:00.941Z,0.5
2024-01-30T22:20:01.223Z,0.5
2024-01-30T22:24:00.912Z,0.5
2024-01-30T22:28:00.940Z,0.4
2024-01-30T22:32:02.891Z,0.4
2024-01-30T22:36:01.060Z,0.4
2024-01-30T22:40:00.884Z,0.4
2024-01-30T22:44:01.195Z,0.4
2024-01-30T22:48:00.897Z,0.4
2024-01-30T22:52:00.964Z,0.4
2024-01-30T22:56:01.017Z,0.4
2024-01-30T23:00:01.122Z,0.4
2024-01-30T23:04:00.930Z,0.4
2024-01-30T23:08:03.639Z,0.4
2024-01-30T23:12:00.860Z,0.4
2024-01-30T23:16:00.930Z,0.4
2024-01-30T23:20:04.978Z,0.4
2024-01-30T23:24:01.197Z,0.4
2024-01-30T23:28:00.957Z,0.4
2024-01-30T23:32:02.712Z,0.4
2024-01-30T23:36:00.896Z,0.4
2024-01-30T23:40:01.140Z,0.4
2024-01-30T23:44:05.350Z,0.4
2024-01-30T23:48:01.394Z,0.4
2024-01-30T23:52:00.947Z,0.4
2024-01-30T23:56:01.969Z,0.4
